sensor_id;sensor_type;location;lat;lon;timestamp;pressure;altitude;pressure_sealevel;temperature;humidity
55675;BME280;41562;44.330;23.802;2022-10-16T00:01:40;101113.69;;;8.98;90.89
55675;BME280;41562;44.330;23.802;2022-10-16T00:04:08;101112.56;;;8.94;91.30
55675;BME280;41562;44.330;23.802;2022-10-16T00:06:36;101105.47;;;9.00;91.69
55675;BME280;41562;44.330;23.802;2022-10-16T00:09:05;101115.53;;;9.09;91.21
55675;BME280;41562;44.330;23.802;2022-10-16T00:11:35;101112.72;;;9.04;90.31
55675;BME280;41562;44.330;23.802;2022-10-16T00:14:05;101114.03;;;9.02;91.02
55675;BME280;41562;44.330;23.802;2022-10-16T00:16:33;101103.03;;;8.98;92.16
55675;BME280;41562;44.330;23.802;2022-10-16T00:19:01;101105.94;;;8.97;91.11
55675;BME280;41562;44.330;23.802;2022-10-16T00:21:30;101097.13;;;8.96;91.23
55675;BME280;41562;44.330;23.802;2022-10-16T00:24:00;101091.94;;;8.90;91.08
55675;BME280;41562;44.330;23.802;2022-10-16T00:26:30;101092.84;;;8.95;92.16
55675;BME280;41562;44.330;23.802;2022-10-16T00:28:57;101103.03;;;8.98;91.02
55675;BME280;41562;44.330;23.802;2022-10-16T00:31:26;101104.19;;;9.02;90.93
55675;BME280;41562;44.330;23.802;2022-10-16T00:33:53;101101.22;;;8.87;91.33
55675;BME280;41562;44.330;23.802;2022-10-16T00:36:22;101107.03;;;8.84;92.01
55675;BME280;41562;44.330;23.802;2022-10-16T00:38:55;101108.47;;;8.75;92.83
55675;BME280;41562;44.330;23.802;2022-10-16T00:41:24;101103.13;;;8.75;92.02
55675;BME280;41562;44.330;23.802;2022-10-16T00:44:00;101108.00;;;8.78;93.78
55675;BME280;41562;44.330;23.802;2022-10-16T00:46:39;101105.69;;;8.70;92.99
55675;BME280;41562;44.330;23.802;2022-10-16T00:49:12;101103.94;;;8.75;92.30
55675;BME280;41562;44.330;23.802;2022-10-16T00:51:46;101101.50;;;8.74;91.64
55675;BME280;41562;44.330;23.802;2022-10-16T00:54:17;101093.38;;;8.80;93.13
55675;BME280;41562;44.330;23.802;2022-10-16T00:56:49;101095.97;;;8.64;92.36
55675;BME280;41562;44.330;23.802;2022-10-16T00:59:25;101090.84;;;8.74;91.84
55675;BME280;41562;44.330;23.802;2022-10-16T01:01:56;101091.41;;;8.76;92.38
55675;BME280;41562;44.330;23.802;2022-10-16T01:04:25;101086.84;;;8.88;91.90
55675;BME280;41562;44.330;23.802;2022-10-16T01:10:20;101092.22;;;8.76;90.71
55675;BME280;41562;44.330;23.802;2022-10-16T01:15:42;101093.84;;;9.06;90.45
55675;BME280;41562;44.330;23.802;2022-10-16T01:18:26;101103.13;;;9.03;90.66
55675;BME280;41562;44.330;23.802;2022-10-16T01:21:03;101110.56;;;9.01;92.18
55675;BME280;41562;44.330;23.802;2022-10-16T01:29:15;101100.50;;;8.92;91.53
55675;BME280;41562;44.330;23.802;2022-10-16T01:31:49;101107.72;;;8.91;92.03
55675;BME280;41562;44.330;23.802;2022-10-16T01:34:22;101102.84;;;8.88;92.18
55675;BME280;41562;44.330;23.802;2022-10-16T01:37:00;101102.69;;;8.95;90.92
55675;BME280;41562;44.330;23.802;2022-10-16T01:39:31;101103.81;;;8.82;91.84
55675;BME280;41562;44.330;23.802;2022-10-16T01:42:08;101123.13;;;8.89;91.33
55675;BME280;41562;44.330;23.802;2022-10-16T01:44:38;101117.94;;;8.82;93.14
55675;BME280;41562;44.330;23.802;2022-10-16T01:47:08;101117.22;;;8.87;91.04
55675;BME280;41562;44.330;23.802;2022-10-16T01:49:40;101116.97;;;8.60;91.66
55675;BME280;41562;44.330;23.802;2022-10-16T01:52:12;101116.03;;;8.55;92.09
55675;BME280;41562;44.330;23.802;2022-10-16T01:54:43;101114.50;;;8.70;92.32
55675;BME280;41562;44.330;23.802;2022-10-16T01:57:14;101117.19;;;8.70;91.32
55675;BME280;41562;44.330;23.802;2022-10-16T01:59:47;101117.91;;;8.66;90.89
55675;BME280;41562;44.330;23.802;2022-10-16T02:02:17;101120.44;;;8.61;91.30
55675;BME280;41562;44.330;23.802;2022-10-16T02:04:54;101122.03;;;8.73;91.08
55675;BME280;41562;44.330;23.802;2022-10-16T02:07:23;101124.00;;;8.78;91.27
55675;BME280;41562;44.330;23.802;2022-10-16T02:09:50;101123.03;;;8.84;90.60
55675;BME280;41562;44.330;23.802;2022-10-16T02:12:26;101129.78;;;8.75;90.06
55675;BME280;41562;44.330;23.802;2022-10-16T02:14:58;101120.69;;;8.59;91.41
55675;BME280;41562;44.330;23.802;2022-10-16T02:17:28;101126.03;;;8.47;91.52
55675;BME280;41562;44.330;23.802;2022-10-16T02:20:00;101121.09;;;8.39;91.41
55675;BME280;41562;44.330;23.802;2022-10-16T02:22:32;101125.59;;;8.27;91.39
55675;BME280;41562;44.330;23.802;2022-10-16T02:27:46;101139.47;;;8.41;92.30
55675;BME280;41562;44.330;23.802;2022-10-16T02:30:23;101145.16;;;8.44;91.41
55675;BME280;41562;44.330;23.802;2022-10-16T02:32:53;101147.22;;;8.54;90.75
55675;BME280;41562;44.330;23.802;2022-10-16T02:35:23;101151.63;;;8.60;90.67
55675;BME280;41562;44.330;23.802;2022-10-16T02:37:52;101151.88;;;8.35;91.58
55675;BME280;41562;44.330;23.802;2022-10-16T02:40:20;101145.25;;;8.50;91.72
55675;BME280;41562;44.330;23.802;2022-10-16T02:42:53;101159.63;;;8.48;91.21
55675;BME280;41562;44.330;23.802;2022-10-16T02:45:21;101152.81;;;8.53;92.30
55675;BME280;41562;44.330;23.802;2022-10-16T02:47:49;101154.16;;;8.67;91.49
55675;BME280;41562;44.330;23.802;2022-10-16T02:50:16;101160.00;;;8.40;91.22
55675;BME280;41562;44.330;23.802;2022-10-16T02:52:47;101159.44;;;8.38;91.07
55675;BME280;41562;44.330;23.802;2022-10-16T02:55:14;101170.06;;;8.27;93.18
55675;BME280;41562;44.330;23.802;2022-10-16T02:57:42;101160.56;;;8.07;92.94
55675;BME280;41562;44.330;23.802;2022-10-16T03:00:14;101164.97;;;8.14;92.36
55675;BME280;41562;44.330;23.802;2022-10-16T03:06:23;101162.88;;;8.27;93.26
55675;BME280;41562;44.330;23.802;2022-10-16T03:08:52;101164.47;;;8.28;92.41
55675;BME280;41562;44.330;23.802;2022-10-16T03:11:19;101162.31;;;8.48;91.68
55675;BME280;41562;44.330;23.802;2022-10-16T03:13:47;101168.13;;;8.45;91.76
55675;BME280;41562;44.330;23.802;2022-10-16T03:16:15;101164.25;;;8.30;91.82
55675;BME280;41562;44.330;23.802;2022-10-16T03:18:42;101164.59;;;8.10;91.54
55675;BME280;41562;44.330;23.802;2022-10-16T03:21:10;101175.75;;;8.07;91.71
55675;BME280;41562;44.330;23.802;2022-10-16T03:23:37;101175.75;;;7.95;92.18
55675;BME280;41562;44.330;23.802;2022-10-16T03:26:05;101183.94;;;7.82;93.03
55675;BME280;41562;44.330;23.802;2022-10-16T03:28:32;101186.38;;;7.84;93.56
55675;BME280;41562;44.330;23.802;2022-10-16T03:31:04;101186.00;;;7.68;93.50
55675;BME280;41562;44.330;23.802;2022-10-16T03:33:31;101185.78;;;7.70;93.50
55675;BME280;41562;44.330;23.802;2022-10-16T03:36:00;101189.91;;;7.66;94.20
55675;BME280;41562;44.330;23.802;2022-10-16T03:38:42;101200.56;;;7.66;94.18
55675;BME280;41562;44.330;23.802;2022-10-16T03:41:09;101203.47;;;7.64;94.19
55675;BME280;41562;44.330;23.802;2022-10-16T03:43:37;101200.22;;;7.62;94.52
55675;BME280;41562;44.330;23.802;2022-10-16T03:46:04;101199.63;;;7.60;94.39
55675;BME280;41562;44.330;23.802;2022-10-16T03:48:33;101201.91;;;7.45;94.73
55675;BME280;41562;44.330;23.802;2022-10-16T03:51:02;101185.16;;;7.56;94.17
55675;BME280;41562;44.330;23.802;2022-10-16T03:53:30;101198.47;;;7.56;94.09
55675;BME280;41562;44.330;23.802;2022-10-16T03:55:58;101203.56;;;7.58;93.46
55675;BME280;41562;44.330;23.802;2022-10-16T03:58:26;101200.06;;;7.46;93.46
55675;BME280;41562;44.330;23.802;2022-10-16T04:00:55;101206.28;;;7.40;94.01
55675;BME280;41562;44.330;23.802;2022-10-16T04:03:23;101206.81;;;7.30;94.46
55675;BME280;41562;44.330;23.802;2022-10-16T04:05:52;101208.78;;;7.35;96.43
55675;BME280;41562;44.330;23.802;2022-10-16T04:08:23;101200.00;;;11.31;94.26
55675;BME280;41562;44.330;23.802;2022-10-16T04:10:54;101207.03;;;11.96;86.30
55675;BME280;41562;44.330;23.802;2022-10-16T04:13:22;101200.75;;;13.21;81.35
55675;BME280;41562;44.330;23.802;2022-10-16T04:15:50;101200.50;;;13.28;76.80
55675;BME280;41562;44.330;23.802;2022-10-16T04:18:17;101210.19;;;12.67;72.58
55675;BME280;41562;44.330;23.802;2022-10-16T04:20:45;101212.88;;;12.67;74.81
55675;BME280;41562;44.330;23.802;2022-10-16T04:23:12;101217.69;;;10.50;75.04
55675;BME280;41562;44.330;23.802;2022-10-16T04:25:42;101209.84;;;9.03;81.76
55675;BME280;41562;44.330;23.802;2022-10-16T04:28:11;101214.09;;;9.04;89.81
55675;BME280;41562;44.330;23.802;2022-10-16T04:30:38;101217.91;;;11.57;81.09
55675;BME280;41562;44.330;23.802;2022-10-16T04:33:08;101221.06;;;10.24;75.97
55675;BME280;41562;44.330;23.802;2022-10-16T04:35:36;101222.44;;;8.68;83.39
55675;BME280;41562;44.330;23.802;2022-10-16T04:38:04;101237.81;;;8.19;87.16
55675;BME280;41562;44.330;23.802;2022-10-16T04:40:32;101234.25;;;7.72;88.63
55675;BME280;41562;44.330;23.802;2022-10-16T04:42:59;101226.56;;;7.52;90.34
55675;BME280;41562;44.330;23.802;2022-10-16T04:45:27;101226.66;;;7.46;90.86
55675;BME280;41562;44.330;23.802;2022-10-16T04:47:58;101228.25;;;7.47;92.95
55675;BME280;41562;44.330;23.802;2022-10-16T04:50:26;101230.16;;;7.28;92.30
55675;BME280;41562;44.330;23.802;2022-10-16T04:52:54;101235.06;;;7.13;93.81
55675;BME280;41562;44.330;23.802;2022-10-16T04:55:22;101234.03;;;7.14;94.28
55675;BME280;41562;44.330;23.802;2022-10-16T04:57:50;101232.56;;;7.00;94.61
55675;BME280;41562;44.330;23.802;2022-10-16T05:00:18;101232.25;;;6.90;95.34
55675;BME280;41562;44.330;23.802;2022-10-16T05:02:46;101239.06;;;7.04;95.30
55675;BME280;41562;44.330;23.802;2022-10-16T05:05:14;101238.78;;;6.94;96.58
55675;BME280;41562;44.330;23.802;2022-10-16T05:07:42;101244.78;;;7.37;96.17
55675;BME280;41562;44.330;23.802;2022-10-16T05:10:10;101245.34;;;7.57;95.76
55675;BME280;41562;44.330;23.802;2022-10-16T05:12:41;101248.75;;;7.46;92.83
55675;BME280;41562;44.330;23.802;2022-10-16T05:15:10;101255.59;;;7.54;97.06
55675;BME280;41562;44.330;23.802;2022-10-16T05:17:42;101261.97;;;7.83;96.66
55675;BME280;41562;44.330;23.802;2022-10-16T05:20:11;101263.72;;;7.89;96.36
55675;BME280;41562;44.330;23.802;2022-10-16T05:22:39;101261.50;;;7.86;93.59
55675;BME280;41562;44.330;23.802;2022-10-16T05:25:07;101264.63;;;7.83;92.30
55675;BME280;41562;44.330;23.802;2022-10-16T05:27:35;101259.53;;;7.93;92.63
55675;BME280;41562;44.330;23.802;2022-10-16T05:30:03;101270.09;;;7.99;92.99
55675;BME280;41562;44.330;23.802;2022-10-16T05:32:37;101273.50;;;8.18;94.63
55675;BME280;41562;44.330;23.802;2022-10-16T05:35:09;101276.84;;;8.14;91.71
55675;BME280;41562;44.330;23.802;2022-10-16T05:37:38;101280.28;;;8.32;92.41
55675;BME280;41562;44.330;23.802;2022-10-16T05:40:12;101275.97;;;8.31;93.62
55675;BME280;41562;44.330;23.802;2022-10-16T05:42:40;101287.03;;;8.17;94.29
55675;BME280;41562;44.330;23.802;2022-10-16T05:45:11;101287.94;;;8.40;94.46
55675;BME280;41562;44.330;23.802;2022-10-16T05:47:39;101294.84;;;8.41;91.09
55675;BME280;41562;44.330;23.802;2022-10-16T05:50:10;101297.91;;;8.57;91.73
55675;BME280;41562;44.330;23.802;2022-10-16T05:52:38;101295.81;;;8.47;91.15
55675;BME280;41562;44.330;23.802;2022-10-16T05:55:06;101296.75;;;8.53;91.64
55675;BME280;41562;44.330;23.802;2022-10-16T05:57:36;101296.38;;;8.37;90.88
55675;BME280;41562;44.330;23.802;2022-10-16T06:00:04;101309.69;;;8.37;91.51
55675;BME280;41562;44.330;23.802;2022-10-16T06:02:32;101314.56;;;8.87;89.33
55675;BME280;41562;44.330;23.802;2022-10-16T06:05:00;101310.88;;;8.65;89.71
55675;BME280;41562;44.330;23.802;2022-10-16T06:07:28;101318.75;;;8.83;90.21
55675;BME280;41562;44.330;23.802;2022-10-16T06:09:56;101321.06;;;8.68;88.68
55675;BME280;41562;44.330;23.802;2022-10-16T06:12:26;101318.50;;;8.73;90.61
55675;BME280;41562;44.330;23.802;2022-10-16T06:14:55;101305.53;;;9.00;88.36
55675;BME280;41562;44.330;23.802;2022-10-16T06:17:22;101311.38;;;9.25;87.20
55675;BME280;41562;44.330;23.802;2022-10-16T06:19:53;101312.19;;;9.37;87.38
55675;BME280;41562;44.330;23.802;2022-10-16T06:22:21;101308.69;;;9.37;87.34
55675;BME280;41562;44.330;23.802;2022-10-16T06:24:48;101309.03;;;9.40;87.79
55675;BME280;41562;44.330;23.802;2022-10-16T06:27:20;101309.09;;;9.57;89.11
55675;BME280;41562;44.330;23.802;2022-10-16T06:29:47;101319.22;;;9.43;88.47
55675;BME280;41562;44.330;23.802;2022-10-16T06:32:18;101313.63;;;9.56;91.93
55675;BME280;41562;44.330;23.802;2022-10-16T06:34:46;101324.13;;;9.75;90.98
55675;BME280;41562;44.330;23.802;2022-10-16T06:37:19;101325.03;;;9.80;88.19
55675;BME280;41562;44.330;23.802;2022-10-16T06:39:51;101331.03;;;9.87;88.21
55675;BME280;41562;44.330;23.802;2022-10-16T06:42:21;101338.66;;;9.95;88.90
55675;BME280;41562;44.330;23.802;2022-10-16T06:44:49;101341.63;;;10.11;89.37
55675;BME280;41562;44.330;23.802;2022-10-16T06:47:17;101335.38;;;10.05;88.78
55675;BME280;41562;44.330;23.802;2022-10-16T06:49:48;101344.13;;;10.29;89.45
55675;BME280;41562;44.330;23.802;2022-10-16T06:52:27;101345.25;;;10.33;89.34
55675;BME280;41562;44.330;23.802;2022-10-16T06:54:55;101343.94;;;10.52;92.28
55675;BME280;41562;44.330;23.802;2022-10-16T06:57:25;101343.06;;;10.63;88.51
55675;BME280;41562;44.330;23.802;2022-10-16T07:00:00;101347.03;;;10.77;89.37
55675;BME280;41562;44.330;23.802;2022-10-16T07:02:27;101346.03;;;10.83;87.52
55675;BME280;41562;44.330;23.802;2022-10-16T07:04:56;101347.13;;;11.43;91.89
55675;BME280;41562;44.330;23.802;2022-10-16T07:07:23;101354.97;;;12.83;81.70
55675;BME280;41562;44.330;23.802;2022-10-16T07:09:54;101352.25;;;11.88;82.26
55675;BME280;41562;44.330;23.802;2022-10-16T07:12:22;101352.09;;;11.78;84.45
55675;BME280;41562;44.330;23.802;2022-10-16T07:14:53;101353.09;;;11.72;82.81
55675;BME280;41562;44.330;23.802;2022-10-16T07:17:27;101355.34;;;11.80;82.92
55675;BME280;41562;44.330;23.802;2022-10-16T07:19:59;101358.13;;;11.90;82.95
55675;BME280;41562;44.330;23.802;2022-10-16T07:22:28;101360.41;;;12.03;82.25
55675;BME280;41562;44.330;23.802;2022-10-16T07:24:56;101357.78;;;12.08;82.39
55675;BME280;41562;44.330;23.802;2022-10-16T07:27:24;101361.06;;;12.15;81.41
55675;BME280;41562;44.330;23.802;2022-10-16T07:29:58;101361.88;;;12.16;81.75
55675;BME280;41562;44.330;23.802;2022-10-16T07:32:32;101365.69;;;12.20;80.91
55675;BME280;41562;44.330;23.802;2022-10-16T07:35:02;101361.06;;;12.15;80.18
55675;BME280;41562;44.330;23.802;2022-10-16T07:37:32;101356.88;;;12.24;81.37
55675;BME280;41562;44.330;23.802;2022-10-16T07:40:04;101359.31;;;12.26;80.39
55675;BME280;41562;44.330;23.802;2022-10-16T07:42:35;101362.28;;;12.29;81.43
55675;BME280;41562;44.330;23.802;2022-10-16T07:45:03;101367.16;;;12.32;80.09
55675;BME280;41562;44.330;23.802;2022-10-16T07:47:33;101368.34;;;12.46;80.47
55675;BME280;41562;44.330;23.802;2022-10-16T07:50:04;101378.91;;;12.58;80.79
55675;BME280;41562;44.330;23.802;2022-10-16T07:52:35;101376.44;;;12.52;80.12
55675;BME280;41562;44.330;23.802;2022-10-16T07:55:03;101374.13;;;13.02;79.58
55675;BME280;41562;44.330;23.802;2022-10-16T07:57:34;101381.38;;;13.02;80.54
55675;BME280;41562;44.330;23.802;2022-10-16T08:00:03;101377.03;;;12.96;78.70
55675;BME280;41562;44.330;23.802;2022-10-16T08:02:37;101381.91;;;13.04;78.42
55675;BME280;41562;44.330;23.802;2022-10-16T08:05:05;101376.75;;;12.97;80.01
55675;BME280;41562;44.330;23.802;2022-10-16T08:07:36;101379.75;;;13.01;78.07
55675;BME280;41562;44.330;23.802;2022-10-16T08:10:19;101382.75;;;13.09;78.19
55675;BME280;41562;44.330;23.802;2022-10-16T08:12:50;101375.31;;;13.79;76.15
55675;BME280;41562;44.330;23.802;2022-10-16T08:15:21;101381.47;;;13.64;76.22
55675;BME280;41562;44.330;23.802;2022-10-16T08:17:57;101381.91;;;14.89;76.79
55675;BME280;41562;44.330;23.802;2022-10-16T08:20:29;101387.03;;;14.75;71.11
55675;BME280;41562;44.330;23.802;2022-10-16T08:23:07;101392.06;;;14.11;72.24
55675;BME280;41562;44.330;23.802;2022-10-16T08:25:41;101387.00;;;14.15;73.30
55675;BME280;41562;44.330;23.802;2022-10-16T08:28:10;101390.19;;;14.01;73.91
55675;BME280;41562;44.330;23.802;2022-10-16T08:30:41;101388.28;;;13.97;73.02
55675;BME280;41562;44.330;23.802;2022-10-16T08:33:12;101394.50;;;14.07;73.16
55675;BME280;41562;44.330;23.802;2022-10-16T08:35:40;101397.22;;;14.28;74.01
55675;BME280;41562;44.330;23.802;2022-10-16T08:38:14;101392.38;;;14.15;73.39
55675;BME280;41562;44.330;23.802;2022-10-16T08:40:46;101395.31;;;14.23;73.03
55675;BME280;41562;44.330;23.802;2022-10-16T08:48:34;101392.44;;;14.60;74.78
55675;BME280;41562;44.330;23.802;2022-10-16T08:51:04;101392.69;;;14.74;72.82
55675;BME280;41562;44.330;23.802;2022-10-16T08:53:52;101397.28;;;14.78;70.99
55675;BME280;41562;44.330;23.802;2022-10-16T08:56:22;101394.03;;;14.97;70.23
55675;BME280;41562;44.330;23.802;2022-10-16T08:58:51;101399.16;;;15.03;70.81
55675;BME280;41562;44.330;23.802;2022-10-16T09:01:40;101401.03;;;15.08;70.13
55675;BME280;41562;44.330;23.802;2022-10-16T09:07:15;101404.16;;;15.60;69.65
55675;BME280;41562;44.330;23.802;2022-10-16T09:10:10;101406.25;;;15.68;66.76
55675;BME280;41562;44.330;23.802;2022-10-16T09:21:40;101402.50;;;16.14;64.75
55675;BME280;41562;44.330;23.802;2022-10-16T09:24:16;101401.75;;;16.47;65.57
55675;BME280;41562;44.330;23.802;2022-10-16T09:26:48;101402.47;;;16.58;63.81
55675;BME280;41562;44.330;23.802;2022-10-16T09:29:19;101398.09;;;16.72;63.82
55675;BME280;41562;44.330;23.802;2022-10-16T09:31:51;101395.63;;;16.75;62.47
55675;BME280;41562;44.330;23.802;2022-10-16T09:37:03;101394.41;;;16.63;60.92
55675;BME280;41562;44.330;23.802;2022-10-16T09:39:53;101385.44;;;16.67;60.54
55675;BME280;41562;44.330;23.802;2022-10-16T09:42:30;101397.16;;;16.47;60.36
55675;BME280;41562;44.330;23.802;2022-10-16T09:45:04;101390.28;;;17.23;62.68
55675;BME280;41562;44.330;23.802;2022-10-16T09:47:35;101387.94;;;18.06;57.97
55675;BME280;41562;44.330;23.802;2022-10-16T09:50:36;101400.97;;;17.33;58.58
55675;BME280;41562;44.330;23.802;2022-10-16T09:53:15;101388.72;;;16.93;60.82
55675;BME280;41562;44.330;23.802;2022-10-16T09:55:56;101382.84;;;16.86;58.81
55675;BME280;41562;44.330;23.802;2022-10-16T09:58:24;101387.91;;;16.59;57.77
55675;BME280;41562;44.330;23.802;2022-10-16T10:00:55;101393.25;;;16.69;58.20
55675;BME280;41562;44.330;23.802;2022-10-16T10:03:37;101386.13;;;16.78;59.44
55675;BME280;41562;44.330;23.802;2022-10-16T10:14:31;101377.28;;;16.72;60.32
55675;BME280;41562;44.330;23.802;2022-10-16T10:17:11;101385.66;;;16.71;59.66
55675;BME280;41562;44.330;23.802;2022-10-16T10:19:55;101380.25;;;16.71;59.45
55675;BME280;41562;44.330;23.802;2022-10-16T10:25:39;101372.09;;;16.76;59.39
55675;BME280;41562;44.330;23.802;2022-10-16T10:31:06;101368.50;;;16.85;59.92
55675;BME280;41562;44.330;23.802;2022-10-16T10:33:50;101367.03;;;16.98;59.89
55675;BME280;41562;44.330;23.802;2022-10-16T10:36:29;101362.16;;;17.00;59.49
55675;BME280;41562;44.330;23.802;2022-10-16T10:39:12;101361.97;;;17.15;57.47
55675;BME280;41562;44.330;23.802;2022-10-16T11:01:30;101341.75;;;17.37;57.83
55675;BME280;41562;44.330;23.802;2022-10-16T11:07:11;101335.03;;;17.10;56.38
55675;BME280;41562;44.330;23.802;2022-10-16T11:09:57;101339.75;;;17.23;57.32
55675;BME280;41562;44.330;23.802;2022-10-16T11:12:37;101333.81;;;17.21;56.56
55675;BME280;41562;44.330;23.802;2022-10-16T11:15:14;101332.50;;;17.19;57.10
55675;BME280;41562;44.330;23.802;2022-10-16T11:17:48;101332.03;;;17.36;58.15
55675;BME280;41562;44.330;23.802;2022-10-16T11:20:42;101331.88;;;17.46;59.09
55675;BME280;41562;44.330;23.802;2022-10-16T11:23:23;101329.78;;;17.43;56.56
55675;BME280;41562;44.330;23.802;2022-10-16T11:25:59;101329.94;;;17.27;55.95
55675;BME280;41562;44.330;23.802;2022-10-16T11:28:41;101330.41;;;17.35;56.63
55675;BME280;41562;44.330;23.802;2022-10-16T11:36:57;101323.91;;;17.78;56.13
55675;BME280;41562;44.330;23.802;2022-10-16T11:39:30;101319.31;;;17.79;57.19
55675;BME280;41562;44.330;23.802;2022-10-16T11:44:57;101314.56;;;17.89;55.69
55675;BME280;41562;44.330;23.802;2022-10-16T11:47:48;101310.75;;;17.90;56.77
55675;BME280;41562;44.330;23.802;2022-10-16T11:50:52;101302.06;;;17.93;56.36
55675;BME280;41562;44.330;23.802;2022-10-16T11:53:51;101310.44;;;18.11;58.25
55675;BME280;41562;44.330;23.802;2022-10-16T11:56:24;101310.81;;;17.85;54.44
55675;BME280;41562;44.330;23.802;2022-10-16T11:59:02;101312.63;;;17.71;55.62
55675;BME280;41562;44.330;23.802;2022-10-16T12:01:43;101309.56;;;17.78;55.86
55675;BME280;41562;44.330;23.802;2022-10-16T12:04:34;101303.75;;;17.89;55.33
55675;BME280;41562;44.330;23.802;2022-10-16T12:07:14;101311.41;;;18.66;57.43
55675;BME280;41562;44.330;23.802;2022-10-16T12:09:50;101303.41;;;18.42;54.96
55675;BME280;41562;44.330;23.802;2022-10-16T12:12:39;101307.97;;;17.95;53.92
55675;BME280;41562;44.330;23.802;2022-10-16T12:15:28;101308.13;;;17.85;55.42
55675;BME280;41562;44.330;23.802;2022-10-16T12:18:24;101305.03;;;17.73;53.74
55675;BME280;41562;44.330;23.802;2022-10-16T12:20:59;101300.44;;;17.74;55.07
55675;BME280;41562;44.330;23.802;2022-10-16T12:23:27;101303.59;;;17.62;54.42
55675;BME280;41562;44.330;23.802;2022-10-16T12:25:59;101298.22;;;17.57;55.69
55675;BME280;41562;44.330;23.802;2022-10-16T12:28:32;101292.16;;;17.65;54.60
55675;BME280;41562;44.330;23.802;2022-10-16T12:31:06;101294.41;;;17.58;54.51
55675;BME280;41562;44.330;23.802;2022-10-16T12:33:36;101295.69;;;17.65;54.99
55675;BME280;41562;44.330;23.802;2022-10-16T12:36:36;101289.81;;;18.15;60.78
55675;BME280;41562;44.330;23.802;2022-10-16T12:39:03;101298.38;;;19.63;62.41
55675;BME280;41562;44.330;23.802;2022-10-16T12:41:33;101299.22;;;19.50;53.33
55675;BME280;41562;44.330;23.802;2022-10-16T12:44:03;101299.59;;;19.30;56.02
55675;BME280;41562;44.330;23.802;2022-10-16T12:46:39;101299.72;;;19.11;50.99
55675;BME280;41562;44.330;23.802;2022-10-16T12:51:44;101295.81;;;18.12;52.84
55675;BME280;41562;44.330;23.802;2022-10-16T12:56:50;101294.06;;;17.64;53.65
55675;BME280;41562;44.330;23.802;2022-10-16T13:02:53;101300.53;;;17.68;54.14
55675;BME280;41562;44.330;23.802;2022-10-16T13:16:56;101306.69;;;17.50;54.42
55675;BME280;41562;44.330;23.802;2022-10-16T13:29:43;101313.03;;;17.41;53.83
55675;BME280;41562;44.330;23.802;2022-10-16T13:32:11;101312.81;;;17.37;54.16
55675;BME280;41562;44.330;23.802;2022-10-16T13:34:47;101305.06;;;17.49;54.75
55675;BME280;41562;44.330;23.802;2022-10-16T13:37:20;101308.06;;;17.48;55.43
55675;BME280;41562;44.330;23.802;2022-10-16T13:39:49;101307.63;;;17.41;53.72
55675;BME280;41562;44.330;23.802;2022-10-16T13:42:25;101308.22;;;17.38;54.52
55675;BME280;41562;44.330;23.802;2022-10-16T13:44:55;101312.75;;;17.42;55.08
55675;BME280;41562;44.330;23.802;2022-10-16T13:47:26;101310.91;;;17.38;54.45
55675;BME280;41562;44.330;23.802;2022-10-16T13:52:28;101313.22;;;17.25;54.52
55675;BME280;41562;44.330;23.802;2022-10-16T13:54:56;101310.53;;;17.25;54.65
55675;BME280;41562;44.330;23.802;2022-10-16T13:57:31;101311.63;;;17.24;54.56
55675;BME280;41562;44.330;23.802;2022-10-16T13:59:59;101313.16;;;17.31;54.61
55675;BME280;41562;44.330;23.802;2022-10-16T14:02:31;101306.78;;;17.21;55.77
55675;BME280;41562;44.330;23.802;2022-10-16T14:05:02;101318.19;;;17.18;57.37
55675;BME280;41562;44.330;23.802;2022-10-16T14:07:32;101320.06;;;17.18;56.59
55675;BME280;41562;44.330;23.802;2022-10-16T14:10:05;101314.06;;;17.21;56.05
55675;BME280;41562;44.330;23.802;2022-10-16T14:12:34;101317.09;;;17.19;56.19
55675;BME280;41562;44.330;23.802;2022-10-16T14:15:02;101315.44;;;17.66;64.68
55675;BME280;41562;44.330;23.802;2022-10-16T14:17:34;101313.31;;;18.00;60.18
55675;BME280;41562;44.330;23.802;2022-10-16T14:20:05;101313.78;;;18.54;59.53
55675;BME280;41562;44.330;23.802;2022-10-16T14:22:38;101316.59;;;18.48;55.64
55675;BME280;41562;44.330;23.802;2022-10-16T14:28:15;101318.84;;;18.60;55.54
55675;BME280;41562;44.330;23.802;2022-10-16T14:30:58;101319.19;;;18.54;55.18
55675;BME280;41562;44.330;23.802;2022-10-16T14:38:47;101316.28;;;18.18;54.92
55675;BME280;41562;44.330;23.802;2022-10-16T14:41:15;101316.84;;;18.33;56.32
55675;BME280;41562;44.330;23.802;2022-10-16T14:43:53;101317.72;;;18.29;57.77
55675;BME280;41562;44.330;23.802;2022-10-16T14:46:30;101323.16;;;18.61;55.03
55675;BME280;41562;44.330;23.802;2022-10-16T14:49:16;101325.38;;;18.73;56.90
55675;BME280;41562;44.330;23.802;2022-10-16T14:51:45;101320.44;;;18.29;55.20
55675;BME280;41562;44.330;23.802;2022-10-16T14:54:17;101329.66;;;18.28;57.88
55675;BME280;41562;44.330;23.802;2022-10-16T14:56:50;101322.09;;;18.43;55.96
55675;BME280;41562;44.330;23.802;2022-10-16T14:59:27;101330.00;;;17.70;57.11
55675;BME280;41562;44.330;23.802;2022-10-16T15:01:56;101332.72;;;17.22;58.51
55675;BME280;41562;44.330;23.802;2022-10-16T15:04:24;101332.03;;;16.88;58.73
55675;BME280;41562;44.330;23.802;2022-10-16T15:06:51;101338.59;;;16.77;59.30
55675;BME280;41562;44.330;23.802;2022-10-16T15:09:21;101341.97;;;16.64;60.26
55675;BME280;41562;44.330;23.802;2022-10-16T15:11:52;101340.41;;;16.53;60.88
55675;BME280;41562;44.330;23.802;2022-10-16T15:14:22;101339.44;;;16.43;61.42
55675;BME280;41562;44.330;23.802;2022-10-16T15:16:49;101338.97;;;16.31;62.25